createdAt,value
2017-09-14T00:01:52.825Z,12.76
2017-09-14T00:02:52.864Z,12.79
2017-09-14T00:04:45.849Z,12.65
2017-09-14T00:05:45.910Z,12.61
2017-09-14T00:07:38.934Z,12.55
2017-09-14T00:08:38.961Z,12.55
2017-09-14T00:10:31.971Z,12.50
2017-09-14T00:11:32.013Z,12.53
2017-09-14T00:13:25.001Z,12.64
2017-09-14T00:14:25.061Z,12.67
2017-09-14T00:16:18.069Z,12.67
2017-09-14T00:17:18.110Z,12.73
2017-09-14T00:19:11.099Z,12.73
2017-09-14T00:20:11.156Z,12.72
2017-09-14T00:22:04.164Z,12.82
2017-09-14T00:23:04.206Z,12.76
2017-09-14T00:24:57.191Z,12.87
2017-09-14T00:25:57.253Z,12.82
2017-09-14T00:27:50.260Z,12.78
2017-09-14T00:28:50.300Z,12.78
2017-09-14T00:30:43.310Z,12.82
2017-09-14T00:31:43.349Z,12.83
2017-09-14T00:33:36.339Z,12.79
2017-09-14T00:34:36.402Z,12.82
2017-09-14T00:36:29.408Z,12.86
2017-09-14T00:37:29.456Z,12.87
2017-09-14T00:39:22.439Z,12.86
2017-09-14T00:40:22.497Z,12.83
2017-09-14T00:42:15.504Z,12.80
2017-09-14T00:43:15.544Z,12.80
2017-09-14T00:45:08.535Z,12.76
2017-09-14T00:46:08.594Z,12.72
2017-09-14T00:48:01.601Z,12.85
2017-09-14T00:49:01.640Z,12.79
2017-09-14T00:50:54.647Z,12.76
2017-09-14T00:51:54.689Z,12.78
2017-09-14T00:53:47.681Z,12.76
2017-09-14T00:54:47.743Z,12.75
2017-09-14T00:56:40.744Z,12.80
2017-09-14T00:57:40.791Z,12.78
2017-09-14T00:59:33.772Z,12.82
2017-09-14T01:00:33.833Z,12.80
2017-09-14T01:02:26.853Z,12.80
2017-09-14T01:03:26.883Z,12.75
2017-09-14T01:05:19.875Z,12.79
2017-09-14T01:06:19.939Z,12.76
2017-09-14T01:08:12.952Z,12.78
2017-09-14T01:09:12.995Z,12.70
2017-09-14T01:11:06.007Z,12.65
2017-09-14T01:12:06.048Z,12.76
2017-09-14T01:13:59.037Z,12.68
2017-09-14T01:14:59.096Z,12.61
2017-09-14T01:16:52.107Z,12.64
2017-09-14T01:17:52.148Z,12.65
2017-09-14T01:19:45.138Z,12.65
2017-09-14T01:20:45.203Z,12.67
2017-09-14T01:22:38.206Z,12.64
2017-09-14T01:23:38.246Z,12.62
2017-09-14T01:25:31.237Z,12.65
2017-09-14T01:26:31.294Z,12.62
2017-09-14T01:28:24.299Z,12.62
2017-09-14T01:29:24.339Z,12.53
2017-09-14T01:31:17.344Z,12.50
2017-09-14T01:32:17.385Z,12.55
2017-09-14T01:34:10.375Z,12.47
2017-09-14T01:35:10.431Z,12.53
2017-09-14T01:37:03.437Z,12.43
2017-09-14T01:38:03.477Z,12.40
2017-09-14T01:39:56.468Z,12.45
2017-09-14T01:40:56.527Z,12.37
2017-09-14T01:42:49.536Z,12.36
2017-09-14T01:43:49.577Z,12.40
2017-09-14T01:45:42.567Z,12.32
2017-09-14T01:46:42.624Z,12.22
2017-09-14T01:48:35.632Z,12.25
2017-09-14T01:49:35.672Z,12.24
2017-09-14T01:51:28.678Z,12.21
2017-09-14T01:52:28.718Z,12.25
2017-09-14T01:54:21.707Z,12.20
2017-09-14T01:55:21.768Z,12.22
2017-09-14T01:57:14.775Z,12.18
2017-09-14T01:58:14.816Z,12.10
2017-09-14T02:00:07.799Z,12.15
2017-09-14T02:01:07.861Z,12.13
2017-09-14T02:03:00.866Z,12.13
2017-09-14T02:04:00.906Z,12.10
2017-09-14T02:05:53.892Z,12.17
2017-09-14T02:06:53.953Z,12.10
2017-09-14T02:08:46.960Z,12.06
2017-09-14T02:09:47.000Z,12.03
2017-09-14T02:11:40.005Z,12.15
2017-09-14T02:12:40.055Z,12.04
2017-09-14T02:14:33.034Z,12.02
2017-09-14T02:15:33.096Z,12.15
2017-09-14T02:17:26.103Z,12.10
2017-09-14T02:18:26.143Z,12.13
2017-09-14T02:20:19.133Z,12.03
2017-09-14T02:21:19.189Z,12.03
2017-09-14T02:23:12.196Z,12.06
2017-09-14T02:24:12.235Z,12.03
2017-09-14T02:26:05.224Z,12.04
2017-09-14T02:27:05.282Z,12.04
2017-09-14T02:28:58.290Z,12.09
2017-09-14T02:29:58.328Z,12.07
2017-09-14T02:31:51.334Z,12.07
2017-09-14T02:32:51.375Z,12.06
2017-09-14T02:34:44.364Z,12.09
2017-09-14T02:35:44.422Z,11.94
2017-09-14T02:37:37.426Z,11.94
2017-09-14T02:38:37.470Z,12.02
2017-09-14T02:40:30.455Z,11.99
2017-09-14T02:41:30.512Z,11.99
2017-09-14T02:43:23.519Z,11.99
2017-09-14T02:44:23.559Z,11.97
2017-09-14T02:46:16.548Z,12.07
2017-09-14T02:47:16.610Z,11.95
2017-09-14T02:49:09.615Z,11.97
2017-09-14T02:50:09.656Z,12.07
2017-09-14T02:52:02.662Z,12.07
2017-09-14T02:53:02.701Z,12.04
2017-09-14T02:54:55.692Z,12.00
2017-09-14T02:55:55.759Z,12.04
2017-09-14T02:57:48.756Z,11.99
2017-09-14T02:58:48.796Z,12.10
2017-09-14T03:00:41.785Z,12.07
2017-09-14T03:01:41.843Z,12.09
2017-09-14T03:03:34.849Z,12.12
2017-09-14T03:04:34.890Z,12.20
2017-09-14T03:06:27.879Z,12.09
2017-09-14T03:07:27.937Z,12.09
2017-09-14T03:09:20.945Z,12.10
2017-09-14T03:10:20.985Z,12.07
2017-09-14T03:12:13.992Z,12.20
2017-09-14T03:13:14.034Z,12.17
2017-09-14T03:15:07.023Z,12.27
2017-09-14T03:16:07.078Z,12.20
2017-09-14T03:18:00.085Z,12.18
2017-09-14T03:19:00.128Z,12.18
2017-09-14T03:20:53.112Z,12.22
2017-09-14T03:21:53.170Z,12.25
2017-09-14T03:23:46.178Z,12.22
2017-09-14T03:24:46.217Z,12.28
2017-09-14T03:26:39.204Z,12.29
2017-09-14T03:27:39.266Z,12.32
2017-09-14T03:29:32.270Z,12.37
2017-09-14T03:30:32.311Z,12.39
2017-09-14T03:32:25.315Z,12.43
2017-09-14T03:33:25.354Z,12.37
2017-09-14T03:35:18.338Z,12.47
2017-09-14T03:36:18.401Z,12.43
2017-09-14T03:38:11.411Z,12.45
2017-09-14T03:39:11.453Z,12.50
2017-09-14T03:41:04.442Z,12.57
2017-09-14T03:42:04.499Z,12.53
2017-09-14T03:43:57.507Z,12.61
2017-09-14T03:44:57.548Z,12.49
2017-09-14T03:46:50.537Z,12.54
2017-09-14T03:47:50.596Z,12.47
2017-09-14T03:49:43.601Z,12.57
2017-09-14T03:50:43.642Z,12.43
2017-09-14T03:52:36.648Z,12.39
2017-09-14T03:53:36.687Z,12.31
2017-09-14T03:55:29.676Z,12.36
2017-09-14T03:56:29.736Z,12.27
2017-09-14T03:58:22.739Z,12.22
2017-09-14T03:59:22.780Z,12.22
2017-09-14T04:01:16.274Z,12.20
2017-09-14T04:02:16.508Z,12.13
2017-09-14T04:04:09.335Z,12.13
2017-09-14T04:05:09.378Z,12.03
2017-09-14T04:07:02.365Z,12.13
2017-09-14T04:08:02.426Z,12.02
2017-09-14T04:09:55.439Z,12.06
2017-09-14T04:10:55.480Z,12.03
2017-09-14T04:12:48.491Z,12.04
2017-09-14T04:13:48.531Z,12.04
2017-09-14T04:15:41.521Z,12.03
2017-09-14T04:16:41.581Z,12.02
2017-09-14T04:18:34.586Z,11.97
2017-09-14T04:19:34.626Z,11.88
2017-09-14T04:21:27.615Z,11.94
2017-09-14T04:22:27.673Z,12.03
2017-09-14T04:24:20.680Z,11.95
2017-09-14T04:25:20.718Z,11.95
2017-09-14T04:27:13.713Z,11.99
2017-09-14T04:28:13.763Z,11.88
2017-09-14T04:30:06.771Z,11.94
2017-09-14T04:31:06.812Z,11.95
2017-09-14T04:32:59.819Z,11.87
2017-09-14T04:33:59.859Z,11.94
2017-09-14T04:35:52.849Z,11.83
2017-09-14T04:36:52.907Z,11.84
2017-09-14T04:38:45.917Z,11.81
2017-09-14T04:39:45.970Z,11.78
2017-09-14T04:41:38.947Z,11.88
2017-09-14T04:42:39.002Z,11.83
2017-09-14T04:44:32.008Z,11.88
2017-09-14T04:45:32.048Z,11.88
2017-09-14T04:47:25.043Z,11.88
2017-09-14T04:48:25.094Z,11.91
2017-09-14T04:50:18.101Z,11.90
2017-09-14T04:51:18.140Z,11.87
2017-09-14T04:53:11.145Z,11.80
2017-09-14T04:54:11.184Z,11.77
2017-09-14T04:56:04.169Z,11.78
2017-09-14T04:57:04.230Z,11.86
2017-09-14T04:58:57.235Z,11.78
2017-09-14T04:59:57.273Z,11.84
2017-09-14T05:01:50.769Z,11.88
2017-09-14T05:02:50.827Z,11.88
2017-09-14T05:04:43.838Z,11.95
2017-09-14T05:05:43.878Z,11.95
2017-09-14T05:07:36.868Z,12.03
2017-09-14T05:08:36.930Z,11.90
2017-09-14T05:10:29.930Z,12.00
2017-09-14T05:11:29.970Z,11.91
2017-09-14T05:13:22.980Z,12.00
2017-09-14T05:14:23.022Z,12.03
2017-09-14T05:16:16.008Z,11.97
2017-09-14T05:17:16.063Z,12.02
2017-09-14T05:19:09.070Z,12.03
2017-09-14T05:20:09.110Z,12.12
2017-09-14T05:22:02.100Z,12.04
2017-09-14T05:23:02.156Z,12.04
2017-09-14T05:24:55.160Z,12.09
2017-09-14T05:25:55.201Z,12.12
2017-09-14T05:27:48.202Z,12.09
2017-09-14T05:28:48.253Z,12.09
2017-09-14T05:30:41.262Z,12.18
2017-09-14T05:31:41.303Z,12.25
2017-09-14T05:33:34.311Z,12.28
2017-09-14T05:34:34.353Z,12.37
2017-09-14T05:36:27.339Z,12.43
2017-09-14T05:37:27.396Z,12.49
2017-09-14T05:39:20.399Z,12.72
2017-09-14T05:40:20.441Z,12.82
2017-09-14T05:42:13.460Z,12.93
2017-09-14T05:43:13.524Z,12.86
2017-09-14T05:45:06.526Z,12.93
2017-09-14T05:46:06.567Z,12.86
2017-09-14T05:47:59.555Z,12.80
2017-09-14T05:48:59.612Z,12.85
2017-09-14T05:50:52.620Z,12.80
2017-09-14T05:51:52.660Z,12.86
2017-09-14T05:53:45.667Z,12.70
2017-09-14T05:54:45.713Z,12.65
2017-09-14T05:56:38.703Z,12.79
2017-09-14T05:57:38.762Z,12.76
2017-09-14T05:59:31.767Z,12.67
2017-09-14T06:00:31.807Z,12.65
2017-09-14T06:02:24.798Z,12.64
2017-09-14T06:03:24.860Z,12.64
2017-09-14T06:05:17.866Z,12.76
2017-09-14T06:06:17.909Z,12.65
2017-09-14T06:08:10.895Z,12.73
2017-09-14T06:09:10.958Z,12.87
2017-09-14T06:11:03.981Z,12.82
2017-09-14T06:12:04.019Z,12.83
2017-09-14T06:13:57.030Z,12.87
2017-09-14T06:14:57.072Z,12.83
2017-09-14T06:16:50.061Z,12.90
2017-09-14T06:17:50.120Z,12.94
2017-09-14T06:19:43.131Z,12.94
2017-09-14T06:20:43.169Z,12.97
2017-09-14T06:22:36.158Z,13.19
2017-09-14T06:23:36.215Z,13.15
2017-09-14T06:25:29.221Z,13.31
2017-09-14T06:26:29.265Z,13.38
2017-09-14T06:28:22.254Z,13.38
2017-09-14T06:29:22.311Z,13.41
2017-09-14T06:31:15.319Z,13.38
2017-09-14T06:32:15.362Z,13.41
2017-09-14T06:34:08.371Z,13.38
2017-09-14T06:35:08.409Z,13.28
2017-09-14T06:37:01.398Z,13.23
2017-09-14T06:38:01.461Z,13.18
2017-09-14T06:39:54.468Z,13.18
2017-09-14T06:40:54.509Z,13.22
2017-09-14T06:42:47.499Z,13.20
2017-09-14T06:43:47.558Z,13.20
2017-09-14T06:45:40.575Z,13.12
2017-09-14T06:46:40.614Z,12.98
2017-09-14T06:48:33.599Z,13.11
2017-09-14T06:49:33.661Z,13.08
2017-09-14T06:51:26.667Z,13.12
2017-09-14T06:52:26.707Z,13.15
2017-09-14T06:54:19.715Z,13.09
2017-09-14T06:55:19.757Z,13.11
2017-09-14T06:57:12.747Z,13.15
2017-09-14T06:58:12.811Z,13.08
2017-09-14T07:00:05.818Z,13.22
2017-09-14T07:01:05.859Z,13.23
2017-09-14T07:02:58.849Z,13.16
2017-09-14T07:03:58.910Z,13.23
2017-09-14T07:05:51.924Z,13.12
2017-09-14T07:06:51.959Z,13.13
2017-09-14T07:08:44.950Z,13.09
2017-09-14T07:09:45.012Z,13.12
2017-09-14T07:11:38.025Z,13.01
2017-09-14T07:12:38.064Z,13.00
2017-09-14T07:14:31.072Z,13.03
2017-09-14T07:15:31.115Z,13.05
2017-09-14T07:17:24.100Z,13.09
2017-09-14T07:18:24.161Z,12.97
2017-09-14T07:20:17.175Z,12.93
2017-09-14T07:21:17.217Z,12.90
2017-09-14T07:23:10.206Z,12.90
2017-09-14T07:24:10.269Z,12.83
2017-09-14T07:26:03.277Z,12.68
2017-09-14T07:27:03.316Z,12.45
2017-09-14T07:28:56.309Z,12.39
2017-09-14T07:29:56.366Z,12.27
2017-09-14T07:31:49.382Z,12.21
2017-09-14T07:32:49.414Z,12.10
2017-09-14T07:34:42.421Z,11.97
2017-09-14T07:35:42.460Z,12.03
2017-09-14T07:37:35.453Z,11.94
2017-09-14T07:38:35.515Z,11.94
2017-09-14T07:40:28.521Z,11.84
2017-09-14T07:41:28.592Z,11.90
2017-09-14T07:43:21.547Z,11.97
2017-09-14T07:44:21.608Z,12.02
2017-09-14T07:46:14.615Z,11.91
2017-09-14T07:47:14.657Z,12.02
2017-09-14T07:49:07.666Z,11.94
2017-09-14T07:50:07.703Z,11.95
2017-09-14T07:52:00.710Z,11.94
2017-09-14T07:53:00.748Z,12.00
2017-09-14T07:54:53.752Z,11.81
2017-09-14T07:55:53.794Z,11.84
2017-09-14T07:57:46.787Z,11.80
2017-09-14T07:58:46.846Z,11.87
2017-09-14T08:00:39.854Z,11.97
2017-09-14T08:01:39.898Z,11.91
2017-09-14T08:03:32.890Z,12.04
2017-09-14T08:04:32.947Z,11.95
2017-09-14T08:06:25.952Z,12.15
2017-09-14T08:07:25.991Z,12.07
2017-09-14T08:09:18.999Z,12.12
2017-09-14T08:10:19.041Z,12.20
2017-09-14T08:12:12.029Z,12.20
2017-09-14T08:13:12.089Z,12.21
2017-09-14T08:15:05.098Z,12.25
2017-09-14T08:16:05.135Z,12.37
2017-09-14T08:17:58.125Z,12.60
2017-09-14T08:18:58.191Z,12.67
2017-09-14T08:20:51.200Z,13.03
2017-09-14T08:21:51.240Z,13.37
2017-09-14T08:23:44.229Z,13.39
2017-09-14T08:24:44.286Z,13.95
2017-09-14T08:26:37.296Z,13.87
2017-09-14T08:27:37.335Z,13.70
2017-09-14T08:29:30.344Z,13.28
2017-09-14T08:30:30.386Z,13.15
2017-09-14T08:32:23.372Z,12.87
2017-09-14T08:33:23.434Z,12.85
2017-09-14T08:35:16.447Z,12.65
2017-09-14T08:36:16.488Z,12.68
2017-09-14T08:38:09.476Z,12.57
2017-09-14T08:39:09.538Z,12.40
2017-09-14T08:41:02.543Z,12.42
2017-09-14T08:42:02.584Z,12.42
2017-09-14T08:43:55.572Z,12.27
2017-09-14T08:44:55.632Z,12.24
2017-09-14T08:46:48.642Z,12.24
2017-09-14T08:47:48.681Z,12.35
2017-09-14T08:49:41.688Z,12.24
2017-09-14T08:50:41.729Z,12.32
2017-09-14T08:52:34.718Z,12.25
2017-09-14T08:53:34.785Z,12.28
2017-09-14T08:55:27.791Z,12.12
2017-09-14T08:56:27.832Z,12.07
2017-09-14T08:58:20.821Z,12.13
2017-09-14T08:59:20.883Z,12.12
2017-09-14T09:01:14.409Z,12.02
2017-09-14T09:02:14.437Z,11.91
2017-09-14T09:04:07.424Z,11.87
2017-09-14T09:05:07.488Z,11.72
2017-09-14T09:07:00.500Z,11.65
2017-09-14T09:08:00.540Z,11.63
2017-09-14T09:09:53.550Z,11.68
2017-09-14T09:10:53.591Z,11.63
2017-09-14T09:12:46.583Z,11.63
2017-09-14T09:13:46.639Z,11.54
2017-09-14T09:15:39.644Z,11.72
2017-09-14T09:16:39.685Z,11.66
2017-09-14T09:18:32.672Z,11.83
2017-09-14T09:19:32.732Z,12.07
2017-09-14T09:21:25.738Z,12.28
2017-09-14T09:22:25.778Z,12.42
2017-09-14T09:24:18.767Z,12.64
2017-09-14T09:25:18.825Z,12.53
2017-09-14T09:27:11.836Z,12.50
2017-09-14T09:28:11.887Z,12.39
2017-09-14T09:30:04.885Z,12.42
2017-09-14T09:31:04.924Z,12.24
2017-09-14T09:32:57.917Z,12.40
2017-09-14T09:33:57.978Z,12.43
2017-09-14T09:35:50.988Z,12.53
2017-09-14T09:36:51.028Z,12.60
2017-09-14T09:38:44.019Z,12.49
2017-09-14T09:39:44.085Z,12.43
2017-09-14T09:41:37.088Z,12.42
2017-09-14T09:42:37.126Z,12.49
2017-09-14T09:44:30.118Z,12.87
2017-09-14T09:45:30.185Z,13.13
2017-09-14T09:47:23.192Z,13.39
2017-09-14T09:48:23.228Z,13.41
2017-09-14T09:50:16.234Z,13.03
2017-09-14T09:51:16.274Z,12.93
2017-09-14T09:53:09.268Z,13.11
2017-09-14T09:54:09.332Z,13.38
2017-09-14T09:56:02.362Z,13.67
2017-09-14T09:57:02.374Z,13.89
2017-09-14T09:58:55.367Z,14.05
2017-09-14T09:59:55.429Z,14.08
2017-09-14T10:01:48.996Z,13.95
2017-09-14T10:02:48.989Z,14.00
2017-09-14T10:04:41.977Z,13.96
2017-09-14T10:05:42.039Z,13.85
2017-09-14T10:07:35.045Z,13.89
2017-09-14T10:08:35.087Z,13.87
2017-09-14T10:10:28.095Z,13.95
2017-09-14T10:11:28.136Z,14.00
2017-09-14T10:13:21.131Z,14.03
2017-09-14T10:14:21.186Z,13.92
2017-09-14T10:16:14.195Z,14.05
2017-09-14T10:17:14.239Z,14.05
2017-09-14T10:19:07.229Z,14.10
2017-09-14T10:20:07.294Z,14.07
2017-09-14T10:22:00.310Z,14.22
2017-09-14T10:23:00.348Z,14.22
2017-09-14T10:24:53.346Z,14.28
2017-09-14T10:25:53.407Z,14.23
2017-09-14T10:27:46.426Z,14.50
2017-09-14T10:28:46.463Z,14.65
2017-09-14T10:30:39.472Z,14.81
2017-09-14T10:31:39.527Z,14.85
2017-09-14T10:33:32.504Z,14.66
2017-09-14T10:34:32.565Z,14.70
2017-09-14T10:36:25.575Z,14.66
2017-09-14T10:37:25.614Z,14.70
2017-09-14T10:39:18.605Z,14.73
2017-09-14T10:40:18.661Z,14.85
2017-09-14T10:42:11.672Z,14.96
2017-09-14T10:43:11.714Z,14.96
2017-09-14T10:45:04.699Z,15.04
2017-09-14T10:46:04.760Z,15.06
2017-09-14T10:47:57.769Z,14.97
2017-09-14T10:48:57.810Z,15.00
2017-09-14T10:50:50.819Z,14.99
2017-09-14T10:51:50.861Z,15.07
2017-09-14T10:53:43.853Z,15.25
2017-09-14T10:54:43.917Z,15.43
2017-09-14T10:56:36.927Z,15.24
2017-09-14T10:57:36.967Z,15.04
2017-09-14T10:59:29.955Z,15.10
2017-09-14T11:00:30.018Z,15.02
2017-09-14T11:02:23.037Z,15.22
2017-09-14T11:03:23.078Z,15.17
2017-09-14T11:05:16.072Z,15.42
2017-09-14T11:06:16.136Z,15.68
2017-09-14T11:08:09.156Z,15.95
2017-09-14T11:09:09.189Z,15.98
2017-09-14T11:11:02.201Z,15.91
2017-09-14T11:12:02.240Z,16.13
2017-09-14T11:13:55.230Z,16.17
2017-09-14T11:14:55.292Z,16.21
2017-09-14T11:16:48.307Z,16.24
2017-09-14T11:17:48.347Z,16.41
2017-09-14T11:19:41.350Z,16.04
2017-09-14T11:20:41.412Z,15.95
2017-09-14T11:22:34.419Z,16.02
2017-09-14T11:23:34.460Z,16.21
2017-09-14T11:25:27.461Z,16.54
2017-09-14T11:26:27.523Z,16.60
2017-09-14T11:28:20.538Z,16.38
2017-09-14T11:29:20.575Z,16.33
2017-09-14T11:31:13.596Z,16.05
2017-09-14T11:32:13.634Z,15.79
2017-09-14T11:34:06.633Z,16.15
2017-09-14T11:35:06.695Z,16.16
2017-09-14T11:36:59.709Z,16.24
2017-09-14T11:37:59.751Z,16.41
2017-09-14T11:39:52.746Z,16.17
2017-09-14T11:40:52.812Z,16.13
2017-09-14T11:42:45.822Z,16.00
2017-09-14T11:43:45.867Z,15.82
2017-09-14T11:45:38.856Z,15.47
2017-09-14T11:46:38.919Z,15.36
2017-09-14T11:48:31.932Z,15.25
2017-09-14T11:49:31.976Z,15.25
2017-09-14T11:51:24.988Z,15.62
2017-09-14T11:52:25.031Z,15.97
2017-09-14T11:54:18.020Z,16.29
2017-09-14T11:55:18.084Z,16.29
2017-09-14T11:57:11.096Z,16.26
2017-09-14T11:58:11.139Z,16.43
2017-09-14T12:00:04.134Z,16.49
2017-09-14T12:01:04.198Z,16.42
2017-09-14T12:02:57.212Z,16.74
2017-09-14T12:03:57.258Z,16.60
2017-09-14T12:05:50.248Z,16.94
2017-09-14T12:06:50.310Z,17.12
2017-09-14T12:08:43.327Z,17.23
2017-09-14T12:09:43.367Z,16.99
2017-09-14T12:11:36.380Z,16.72
2017-09-14T12:12:36.434Z,16.65
2017-09-14T12:14:29.417Z,16.51
2017-09-14T12:15:29.481Z,16.41
2017-09-14T12:17:22.492Z,16.42
2017-09-14T12:18:22.540Z,16.54
2017-09-14T12:20:15.530Z,16.51
2017-09-14T12:21:15.593Z,16.32
2017-09-14T12:23:08.605Z,16.12
2017-09-14T12:24:08.651Z,16.05
2017-09-14T12:26:01.642Z,16.08
2017-09-14T12:27:01.708Z,16.20
2017-09-14T12:28:54.714Z,16.26
2017-09-14T12:29:54.760Z,16.39
2017-09-14T12:31:47.771Z,16.36
2017-09-14T12:32:47.812Z,16.39
2017-09-14T12:34:40.821Z,16.61
2017-09-14T12:35:40.867Z,16.56
2017-09-14T12:37:33.876Z,16.65
2017-09-14T12:38:33.919Z,16.78
2017-09-14T12:40:26.912Z,16.46
2017-09-14T12:41:26.975Z,16.46
2017-09-14T12:43:19.987Z,16.51
2017-09-14T12:44:20.030Z,16.38
2017-09-14T12:46:13.027Z,16.10
2017-09-14T12:47:13.089Z,16.01
2017-09-14T12:49:06.100Z,15.76
2017-09-14T12:50:06.143Z,15.70
2017-09-14T12:51:59.152Z,15.44
2017-09-14T12:52:59.195Z,15.55
2017-09-14T12:54:52.189Z,15.77
2017-09-14T12:55:52.248Z,16.04
2017-09-14T12:57:45.258Z,16.23
2017-09-14T12:58:45.301Z,16.15
2017-09-14T13:00:38.303Z,16.10
2017-09-14T13:01:38.355Z,16.23
2017-09-14T13:03:31.366Z,16.17
2017-09-14T13:04:31.416Z,16.21
2017-09-14T13:06:24.409Z,16.15
2017-09-14T13:07:24.472Z,16.20
2017-09-14T13:09:17.481Z,16.24
2017-09-14T13:10:17.523Z,16.29
2017-09-14T13:12:10.539Z,16.26
2017-09-14T13:13:10.588Z,16.24
2017-09-14T13:15:03.587Z,16.32
2017-09-14T13:16:03.660Z,16.26
2017-09-14T13:17:56.693Z,16.12
2017-09-14T13:18:56.742Z,16.00
2017-09-14T13:20:49.749Z,16.17
2017-09-14T13:21:49.771Z,16.13
2017-09-14T13:23:42.797Z,16.01
2017-09-14T13:24:42.861Z,15.90
2017-09-14T13:26:35.850Z,15.70
2017-09-14T13:27:35.898Z,15.57
2017-09-14T13:29:28.937Z,15.37
2017-09-14T13:30:28.983Z,15.35
2017-09-14T13:32:21.968Z,15.22
2017-09-14T13:33:22.010Z,15.07
2017-09-14T13:35:15.045Z,14.73
2017-09-14T13:36:15.075Z,14.45
2017-09-14T13:38:08.095Z,14.26
2017-09-14T13:39:08.153Z,14.26
2017-09-14T13:41:01.122Z,14.08
2017-09-14T13:42:01.207Z,13.96
2017-09-14T13:43:54.221Z,13.93
2017-09-14T13:44:54.240Z,13.96
2017-09-14T13:46:47.235Z,13.77
2017-09-14T13:47:47.302Z,13.60
2017-09-14T13:49:40.312Z,13.62
2017-09-14T13:50:40.355Z,13.67
2017-09-14T13:52:33.377Z,13.62
2017-09-14T13:53:33.418Z,13.52
2017-09-14T13:55:27.279Z,13.53
2017-09-14T13:56:27.334Z,13.41
2017-09-14T13:58:20.350Z,13.56
2017-09-14T13:59:20.404Z,13.56
2017-09-14T14:01:13.368Z,13.56
2017-09-14T14:02:13.430Z,13.56
2017-09-14T14:04:06.454Z,13.49
2017-09-14T14:05:06.489Z,13.49
2017-09-14T14:06:59.474Z,13.38
2017-09-14T14:07:59.535Z,13.46
2017-09-14T14:09:52.559Z,13.42
2017-09-14T14:10:52.606Z,13.42
2017-09-14T14:12:45.603Z,13.44
2017-09-14T14:13:45.644Z,13.50
2017-09-14T14:15:38.656Z,13.60
2017-09-14T14:16:38.694Z,13.62
2017-09-14T14:18:31.706Z,13.56
2017-09-14T14:19:31.745Z,13.67
2017-09-14T14:21:24.735Z,13.68
2017-09-14T14:22:24.795Z,13.75
2017-09-14T14:24:17.807Z,13.77
2017-09-14T14:25:17.853Z,13.71
2017-09-14T14:27:10.844Z,13.83
2017-09-14T14:28:10.897Z,13.83
2017-09-14T14:30:03.907Z,13.68
2017-09-14T14:31:03.948Z,13.62
2017-09-14T14:32:56.963Z,13.44
2017-09-14T14:33:56.998Z,13.30
2017-09-14T14:35:49.996Z,13.28
2017-09-14T14:36:50.054Z,13.27
2017-09-14T14:38:43.061Z,13.33
2017-09-14T14:39:43.105Z,13.42
2017-09-14T14:41:36.097Z,13.49
2017-09-14T14:42:36.160Z,13.41
2017-09-14T14:44:29.175Z,13.50
2017-09-14T14:45:29.212Z,13.47
2017-09-14T14:47:22.215Z,13.41
2017-09-14T14:48:22.272Z,13.37
2017-09-14T14:50:15.294Z,13.22
2017-09-14T14:51:15.333Z,13.12
2017-09-14T14:53:08.341Z,13.11
2017-09-14T14:54:08.383Z,13.19
2017-09-14T14:56:01.373Z,12.91
2017-09-14T14:57:01.436Z,12.94
2017-09-14T14:58:54.459Z,12.93
2017-09-14T14:59:54.486Z,12.93
2017-09-14T15:01:47.985Z,12.75
2017-09-14T15:02:48.044Z,12.70
2017-09-14T15:04:41.054Z,12.70
2017-09-14T15:05:41.093Z,12.73
2017-09-14T15:07:34.085Z,12.73
2017-09-14T15:08:34.148Z,12.67
2017-09-14T15:10:27.159Z,12.47
2017-09-14T15:11:27.202Z,12.53
2017-09-14T15:13:20.209Z,12.47
2017-09-14T15:14:20.264Z,12.40
2017-09-14T15:16:13.240Z,12.54
2017-09-14T15:17:13.303Z,12.40
2017-09-14T15:19:06.312Z,12.40
2017-09-14T15:20:06.356Z,12.45
2017-09-14T15:21:59.344Z,12.43
2017-09-14T15:22:59.404Z,12.39
2017-09-14T15:24:52.413Z,12.35
2017-09-14T15:25:52.454Z,12.24
2017-09-14T15:27:45.440Z,12.22
2017-09-14T15:28:45.509Z,12.27
2017-09-14T15:30:38.525Z,12.28
2017-09-14T15:31:38.553Z,12.29
2017-09-14T15:33:31.572Z,12.39
2017-09-14T15:34:31.615Z,12.29
2017-09-14T15:36:24.605Z,12.25
2017-09-14T15:37:24.668Z,12.28
2017-09-14T15:39:17.682Z,12.27
2017-09-14T15:40:17.732Z,12.39
2017-09-14T15:42:10.730Z,12.39
2017-09-14T15:43:10.793Z,12.27
2017-09-14T15:45:03.784Z,12.40
2017-09-14T15:46:03.828Z,12.32
2017-09-14T15:47:56.815Z,12.24
2017-09-14T15:48:56.874Z,12.22
2017-09-14T15:50:49.885Z,12.31
2017-09-14T15:51:49.924Z,12.22
2017-09-14T15:53:42.970Z,12.24
2017-09-14T15:54:42.980Z,12.15
2017-09-14T15:56:35.966Z,12.15
2017-09-14T15:57:36.043Z,12.06
2017-09-14T15:59:29.045Z,12.06
2017-09-14T16:00:29.087Z,12.06
2017-09-14T16:02:22.594Z,12.10
2017-09-14T16:03:22.643Z,12.07
2017-09-14T16:05:15.653Z,12.06
2017-09-14T16:06:15.694Z,12.06
2017-09-14T16:08:08.682Z,12.03
2017-09-14T16:09:08.745Z,12.03
2017-09-14T16:11:01.749Z,12.06
2017-09-14T16:12:01.804Z,12.03
2017-09-14T16:13:54.796Z,12.10
2017-09-14T16:14:54.836Z,12.04
2017-09-14T16:16:47.822Z,12.07
2017-09-14T16:17:47.884Z,12.03
2017-09-14T16:19:40.891Z,12.06
2017-09-14T16:20:40.930Z,12.06
2017-09-14T16:22:33.924Z,12.07
2017-09-14T16:23:33.985Z,12.04
2017-09-14T16:25:26.994Z,12.02
2017-09-14T16:26:27.036Z,12.07
2017-09-14T16:28:20.024Z,12.03
2017-09-14T16:29:20.091Z,12.07
2017-09-14T16:31:13.093Z,12.07
2017-09-14T16:32:13.130Z,12.15
2017-09-14T16:34:06.145Z,12.09
2017-09-14T16:35:06.186Z,12.15
2017-09-14T16:36:59.173Z,12.21
2017-09-14T16:37:59.231Z,12.17
2017-09-14T16:39:52.240Z,12.17
2017-09-14T16:40:52.280Z,12.09
2017-09-14T16:42:45.274Z,12.15
2017-09-14T16:43:45.336Z,12.09
2017-09-14T16:45:38.346Z,12.13
2017-09-14T16:46:38.394Z,12.07
2017-09-14T16:48:31.373Z,12.09
2017-09-14T16:49:31.432Z,12.07
2017-09-14T16:51:24.443Z,12.15
2017-09-14T16:52:24.481Z,12.20
2017-09-14T16:54:17.489Z,12.21
2017-09-14T16:55:17.529Z,12.20
2017-09-14T16:57:10.518Z,12.29
2017-09-14T16:58:10.584Z,12.29
2017-09-14T17:00:03.586Z,12.27
2017-09-14T17:01:03.626Z,12.37
2017-09-14T17:02:56.620Z,12.37
2017-09-14T17:03:56.679Z,12.37
2017-09-14T17:05:49.694Z,12.39
2017-09-14T17:06:49.724Z,12.39
2017-09-14T17:08:42.710Z,12.39
2017-09-14T17:09:42.769Z,12.40
2017-09-14T17:11:35.776Z,12.46
2017-09-14T17:12:35.819Z,12.45
2017-09-14T17:14:28.823Z,12.39
2017-09-14T17:15:28.869Z,12.46
2017-09-14T17:17:21.860Z,12.47
2017-09-14T17:18:21.919Z,12.54
2017-09-14T17:20:14.937Z,12.50
2017-09-14T17:21:14.981Z,12.50
2017-09-14T17:23:07.968Z,12.46
2017-09-14T17:24:08.027Z,12.55
2017-09-14T17:26:01.033Z,12.49
2017-09-14T17:27:01.087Z,12.61
2017-09-14T17:28:54.064Z,12.64
2017-09-14T17:29:54.121Z,12.61
2017-09-14T17:31:47.130Z,12.61
2017-09-14T17:32:47.171Z,12.60
2017-09-14T17:34:40.180Z,12.65
2017-09-14T17:35:40.223Z,12.65
2017-09-14T17:37:33.211Z,12.64
2017-09-14T17:38:33.272Z,12.64
2017-09-14T17:40:26.280Z,12.64
2017-09-14T17:41:26.318Z,12.62
2017-09-14T17:43:19.308Z,12.65
2017-09-14T17:44:19.368Z,12.65
2017-09-14T17:46:12.374Z,12.62
2017-09-14T17:47:12.414Z,12.65
2017-09-14T17:49:05.402Z,12.61
2017-09-14T17:50:05.464Z,12.65
2017-09-14T17:51:58.471Z,12.64
2017-09-14T17:52:58.510Z,12.65
2017-09-14T17:54:51.520Z,12.65
2017-09-14T17:55:51.560Z,12.67
2017-09-14T17:57:44.553Z,12.64
2017-09-14T17:58:44.607Z,12.65
2017-09-14T18:00:37.614Z,12.65
2017-09-14T18:01:37.658Z,12.62
2017-09-14T18:03:30.639Z,12.65
2017-09-14T18:04:30.701Z,12.61
2017-09-14T18:06:23.707Z,12.61
2017-09-14T18:07:23.745Z,12.65
2017-09-14T18:09:16.734Z,12.67
2017-09-14T18:10:16.793Z,12.64
2017-09-14T18:12:09.807Z,12.61
2017-09-14T18:13:09.851Z,12.58
2017-09-14T18:15:02.864Z,12.61
2017-09-14T18:16:02.907Z,12.64
2017-09-14T18:17:55.896Z,12.75
2017-09-14T18:18:55.961Z,12.75
2017-09-14T18:20:48.964Z,12.72
2017-09-14T18:21:49.007Z,12.76
2017-09-14T18:23:41.994Z,12.75
2017-09-14T18:24:42.054Z,12.79
2017-09-14T18:26:35.061Z,12.83
2017-09-14T18:27:35.103Z,12.82
2017-09-14T18:29:28.091Z,12.85
2017-09-14T18:30:28.150Z,12.90
2017-09-14T18:32:21.153Z,12.83
2017-09-14T18:33:21.209Z,12.90
2017-09-14T18:35:14.223Z,12.90